Time;durP1;ratioP1;P1;durP2;ratioP2;P2;SDS_P1;SDS_P2;PMS_P1;PMS_P2;Temp;Humidity;BMP_temperature;BMP_pressure;BME280_temperature;BME280_humidity;BME280_pressure;Samples;Min_cycle;Max_cycle;Signal;HPM_P1;HPM_P2
2021/06/10 00:00:33;;;;;;;8.52;7.13;;;20.80;77.40;;;;;;4956561;28;20546;-74
2021/06/10 00:02:59;;;;;;;7.80;6.50;;;20.70;77.60;;;;;;4954572;28;20042;-74
2021/06/10 00:05:24;;;;;;;6.40;5.80;;;20.80;78.00;;;;;;4957311;28;20059;-74
2021/06/10 00:07:50;;;;;;;8.20;5.80;;;20.80;78.50;;;;;;4962284;28;20066;-74
2021/06/10 00:10:19;;;;;;;11.07;5.93;;;20.80;78.30;;;;;;4941267;28;20037;-75
2021/06/10 00:12:44;;;;;;;8.38;5.38;;;20.70;77.90;;;;;;4957299;28;20082;-74
2021/06/10 00:15:13;;;;;;;9.25;5.10;;;20.70;77.30;;;;;;4963489;28;20066;-74
2021/06/10 00:17:39;;;;;;;8.48;5.72;;;20.70;77.60;;;;;;4957930;28;20054;-74
2021/06/10 00:20:07;;;;;;;8.50;5.63;;;20.70;78.70;;;;;;4962087;28;20066;-74
2021/06/10 00:22:33;;;;;;;8.15;5.75;;;20.70;78.90;;;;;;4968741;28;20034;-75
2021/06/10 00:24:59;;;;;;;8.63;5.43;;;20.60;79.10;;;;;;4966201;28;20031;-75
2021/06/10 00:27:24;;;;;;;5.82;4.95;;;20.60;79.20;;;;;;4963223;28;20041;-74
2021/06/10 00:29:50;;;;;;;6.93;5.95;;;20.60;79.30;;;;;;4962397;28;20042;-74
2021/06/10 00:32:17;;;;;;;9.40;5.90;;;20.60;79.60;;;;;;4959687;28;20066;-75
2021/06/10 00:34:43;;;;;;;8.25;5.28;;;20.60;80.40;;;;;;4959755;28;20054;-75
2021/06/10 00:37:10;;;;;;;7.22;5.53;;;20.60;80.90;;;;;;4967043;28;20046;-74
2021/06/10 00:39:36;;;;;;;8.27;5.13;;;20.60;81.00;;;;;;4969947;28;20039;-74
2021/06/10 00:42:03;;;;;;;7.63;5.68;;;20.60;81.70;;;;;;4961488;28;20042;-74
2021/06/10 00:44:28;;;;;;;8.82;6.10;;;20.50;82.20;;;;;;4964998;28;20084;-74
2021/06/10 00:46:54;;;;;;;7.32;5.90;;;20.40;82.90;;;;;;4969744;28;20051;-74
2021/06/10 00:49:19;;;;;;;6.55;5.57;;;20.30;84.40;;;;;;4963080;28;20451;-74
2021/06/10 00:51:45;;;;;;;7.05;5.50;;;20.30;86.20;;;;;;4969074;28;20039;-74
2021/06/10 00:54:11;;;;;;;7.78;5.63;;;20.20;87.70;;;;;;4969568;28;20038;-74
2021/06/10 00:56:36;;;;;;;9.73;6.68;;;20.00;88.80;;;;;;4961869;28;20057;-73
2021/06/10 00:59:03;;;;;;;6.28;5.68;;;20.00;90.30;;;;;;4970300;28;20073;-75
2021/06/10 01:01:28;;;;;;;9.88;6.10;;;20.00;90.90;;;;;;4963311;28;20072;-73
2021/06/10 01:03:54;;;;;;;11.70;9.90;;;19.90;91.30;;;;;;4964764;28;20399;-73
2021/06/10 01:06:32;;;;;;;7.20;6.45;;;19.90;91.70;;;;;;4959792;28;20039;-73
2021/06/10 01:09:05;;;;;;;8.10;5.38;;;20.00;92.10;;;;;;4960755;28;20034;-73
2021/06/10 01:11:51;;;;;;;7.22;6.07;;;20.00;92.50;;;;;;4967092;28;20149;-73
2021/06/10 01:14:39;;;;;;;8.43;5.72;;;19.90;93.00;;;;;;4976549;28;20091;-74
2021/06/10 01:17:06;;;;;;;7.13;6.05;;;19.80;93.80;;;;;;4965514;28;20052;-74
2021/06/10 01:19:39;;;;;;;9.98;5.80;;;19.80;94.20;;;;;;4961065;28;20019;-75
2021/06/10 01:22:12;;;;;;;9.25;6.97;;;19.80;94.80;;;;;;4969665;28;20070;-73
2021/06/10 01:25:00;;;;;;;6.95;5.97;;;19.70;95.40;;;;;;4968547;28;20035;-73
2021/06/10 01:27:28;;;;;;;7.25;5.70;;;19.80;95.90;;;;;;4967699;28;20033;-73
2021/06/10 01:30:08;;;;;;;9.70;8.07;;;19.70;96.20;;;;;;4965299;28;20015;-74
2021/06/10 01:32:37;;;;;;;8.57;7.23;;;19.70;96.50;;;;;;4962142;28;20058;-73
2021/06/10 01:35:03;;;;;;;9.85;6.43;;;19.70;96.90;;;;;;4962895;28;20029;-77
2021/06/10 01:37:30;;;;;;;6.85;6.15;;;19.70;97.00;;;;;;4972291;28;20027;-74
2021/06/10 01:39:57;;;;;;;8.43;6.00;;;19.60;97.30;;;;;;4966817;28;20023;-72
2021/06/10 01:42:23;;;;;;;8.90;6.05;;;19.60;97.80;;;;;;4963701;28;20027;-74
2021/06/10 01:44:50;;;;;;;7.72;6.40;;;19.50;98.10;;;;;;4964973;28;20387;-74
2021/06/10 01:47:22;;;;;;;7.70;5.95;;;19.50;98.60;;;;;;4961634;28;20027;-74
2021/06/10 01:49:50;;;;;;;8.23;6.38;;;19.40;98.70;;;;;;4971244;28;20155;-74
2021/06/10 01:52:18;;;;;;;10.50;7.10;;;19.40;99.10;;;;;;4969310;28;20041;-74
2021/06/10 01:54:43;;;;;;;8.07;5.85;;;19.40;99.60;;;;;;4967036;28;20027;-75
2021/06/10 01:57:11;;;;;;;8.60;6.45;;;19.20;99.90;;;;;;4971458;28;20034;-76
2021/06/10 01:59:36;;;;;;;8.43;6.70;;;19.20;99.90;;;;;;4964019;28;20022;-75
2021/06/10 02:02:04;;;;;;;8.88;6.53;;;19.30;99.90;;;;;;4972403;28;20090;-76
2021/06/10 02:04:32;;;;;;;13.48;6.28;;;19.30;99.90;;;;;;4966039;28;20440;-76
2021/06/10 02:06:59;;;;;;;7.07;6.13;;;19.40;99.90;;;;;;4966219;28;20114;-74
2021/06/10 02:09:26;;;;;;;7.80;6.70;;;19.50;99.90;;;;;;4958446;28;20034;-74
2021/06/10 02:11:52;;;;;;;8.07;6.45;;;19.50;99.90;;;;;;4967549;28;20104;-76
2021/06/10 02:14:19;;;;;;;7.03;6.35;;;19.60;99.90;;;;;;4961080;28;20111;-74
2021/06/10 02:16:47;;;;;;;8.63;6.85;;;19.60;99.90;;;;;;4966450;28;20035;-75
2021/06/10 02:19:16;;;;;;;8.60;6.57;;;19.60;99.90;;;;;;4964790;28;20034;-73
2021/06/10 02:21:41;;;;;;;8.90;6.57;;;19.60;99.90;;;;;;4972067;28;20031;-75
2021/06/10 02:24:10;;;;;;;7.35;6.57;;;19.50;99.90;;;;;;4964207;28;20045;-74
2021/06/10 02:26:35;;;;;;;8.77;7.10;;;19.40;99.90;;;;;;4964519;28;20023;-75
2021/06/10 02:29:01;;;;;;;8.27;6.05;;;19.40;99.90;;;;;;4976579;28;20080;-75
2021/06/10 02:31:26;;;;;;;7.45;6.07;;;21.10;99.90;;;;;;4974812;28;20041;-75
2021/06/10 02:33:52;;;;;;;10.45;6.80;;;19.30;99.90;;;;;;4978502;28;20133;-74
2021/06/10 02:36:19;;;;;;;6.25;5.63;;;19.30;99.90;;;;;;4967728;28;20035;-75
2021/06/10 02:38:56;;;;;;;6.20;5.30;;;19.30;99.90;;;;;;4968385;28;20032;-75
2021/06/10 02:41:27;;;;;;;7.63;6.07;;;19.20;99.90;;;;;;4967857;28;20035;-74
2021/06/10 02:43:55;;;;;;;7.60;5.90;;;19.20;99.90;;;;;;4959661;28;20024;-75
2021/06/10 02:46:21;;;;;;;9.45;6.20;;;19.30;99.90;;;;;;4968265;28;20094;-75
2021/06/10 02:48:48;;;;;;;6.78;5.88;;;19.30;99.40;;;;;;4969453;28;20109;-74
2021/06/10 02:51:15;;;;;;;10.75;6.88;;;19.30;98.00;;;;;;4965130;28;20047;-75
2021/06/10 02:53:41;;;;;;;8.60;6.57;;;19.30;98.20;;;;;;4963374;28;20392;-75
2021/06/10 02:56:09;;;;;;;5.88;4.80;;;19.40;97.90;;;;;;4967969;28;20047;-74
2021/06/10 02:58:38;;;;;;;7.15;5.38;;;19.50;97.70;;;;;;4972733;28;20082;-74
2021/06/10 03:01:05;;;;;;;6.63;4.88;;;19.50;97.60;;;;;;4983310;28;20031;-73
2021/06/10 03:03:33;;;;;;;7.15;4.75;;;19.60;97.00;;;;;;4971729;28;20291;-74
2021/06/10 03:05:59;;;;;;;6.55;5.30;;;19.60;96.50;;;;;;4978598;28;20364;-77
2021/06/10 03:08:26;;;;;;;7.30;5.20;;;19.50;96.20;;;;;;4980969;28;20059;-76
2021/06/10 03:10:57;;;;;;;5.00;4.50;;;19.50;95.80;;;;;;4966896;28;20334;-75
2021/06/10 03:13:24;;;;;;;5.20;4.68;;;19.40;95.70;;;;;;4963904;28;20023;-76
2021/06/10 03:15:50;;;;;;;5.30;4.60;;;19.40;95.90;;;;;;4964354;28;20039;-76
2021/06/10 03:18:16;;;;;;;7.25;5.35;;;19.40;95.60;;;;;;4965701;28;20095;-78
2021/06/10 03:20:41;;;;;;;6.35;4.70;;;19.40;95.70;;;;;;4969464;28;20178;-76
2021/06/10 03:23:08;;;;;;;6.65;5.57;;;19.30;95.70;;;;;;4964652;28;20027;-76
2021/06/10 03:25:34;;;;;;;8.63;5.45;;;19.20;95.90;;;;;;4963854;28;20724;-76
2021/06/10 03:28:02;;;;;;;7.15;4.80;;;19.30;95.80;;;;;;4966290;28;20041;-76
2021/06/10 03:30:27;;;;;;;7.22;4.95;;;19.30;95.70;;;;;;4963234;28;20054;-76
2021/06/10 03:32:53;;;;;;;6.55;4.53;;;;;;;;;;4963820;28;20019;-78
2021/06/10 03:35:20;;;;;;;6.10;5.00;;;19.60;95.10;;;;;;4959713;28;20026;-75
2021/06/10 03:37:47;;;;;;;7.03;5.57;;;19.50;95.30;;;;;;4968003;28;20026;-74
2021/06/10 03:40:13;;;;;;;7.53;5.95;;;19.60;94.80;;;;;;4970961;28;20027;-77
2021/06/10 03:42:39;;;;;;;5.00;4.50;;;19.60;95.00;;;;;;4974322;28;20027;-76
2021/06/10 03:45:07;;;;;;;9.55;5.18;;;19.60;95.00;;;;;;4971041;28;20106;-75
2021/06/10 03:47:33;;;;;;;6.72;5.40;;;19.70;95.00;;;;;;4974481;28;20026;-74
2021/06/10 03:50:00;;;;;;;7.63;5.32;;;19.80;95.00;;;;;;4960845;28;20087;-75
2021/06/10 03:52:27;;;;;;;6.20;5.60;;;19.90;95.00;;;;;;4975586;28;20023;-76
2021/06/10 03:54:53;;;;;;;10.15;5.68;;;19.90;95.00;;;;;;4977597;28;20059;-74
2021/06/10 03:57:18;;;;;;;6.57;5.90;;;19.90;94.90;;;;;;4959961;28;20027;-74
2021/06/10 03:59:44;;;;;;;7.38;6.00;;;20.00;95.20;;;;;;4968027;28;20019;-78
2021/06/10 04:02:09;;;;;;;7.82;5.72;;;20.00;95.50;;;;;;4963880;28;20031;-75
2021/06/10 04:04:35;;;;;;;8.50;6.63;;;20.10;95.80;;;;;;4967580;28;20088;-74
2021/06/10 04:07:00;;;;;;;10.07;6.50;;;20.10;96.00;;;;;;4966156;28;20042;-73
2021/06/10 04:09:26;;;;;;;9.27;5.93;;;20.10;96.20;;;;;;4968742;28;20115;-75
2021/06/10 04:11:52;;;;;;;8.82;6.30;;;20.10;96.30;;;;;;4956946;28;20035;-73
2021/06/10 04:14:17;;;;;;;9.65;6.82;;;19.90;96.40;;;;;;4960127;28;20066;-76
2021/06/10 04:16:45;;;;;;;9.57;7.97;;;19.80;96.60;;;;;;4968392;28;20072;-74
2021/06/10 04:19:10;;;;;;;7.18;5.97;;;19.90;96.50;;;;;;4971749;28;20063;-74
2021/06/10 04:21:36;;;;;;;7.07;6.18;;;19.90;96.20;;;;;;4962763;28;20487;-74
2021/06/10 04:24:02;;;;;;;9.63;6.90;;;19.90;96.30;;;;;;4981758;28;20022;-73
2021/06/10 04:26:28;;;;;;;9.77;6.65;;;20.00;95.80;;;;;;4957575;28;20510;-75
2021/06/10 04:28:53;;;;;;;7.63;6.38;;;20.10;95.80;;;;;;4960600;28;20025;-75
2021/06/10 04:31:20;;;;;;;7.78;6.43;;;20.00;95.70;;;;;;4963855;28;20039;-74
2021/06/10 04:33:45;;;;;;;7.57;6.20;;;20.10;95.50;;;;;;4958763;28;20118;-74
2021/06/10 04:36:11;;;;;;;7.45;6.13;;;20.00;95.60;;;;;;4952898;28;20114;-74
2021/06/10 04:38:38;;;;;;;9.30;6.95;;;19.90;95.40;;;;;;4975391;28;20030;-75
2021/06/10 04:41:04;;;;;;;8.45;6.30;;;20.00;95.50;;;;;;4964752;28;20034;-74
2021/06/10 04:43:29;;;;;;;9.13;6.32;;;20.10;95.20;;;;;;4981320;28;20114;-74
2021/06/10 04:45:56;;;;;;;8.93;6.95;;;20.20;94.70;;;;;;4978453;28;20019;-73
2021/06/10 04:48:22;;;;;;;10.27;7.53;;;20.30;94.50;;;;;;4974997;28;20086;-74
2021/06/10 04:50:48;;;;;;;11.48;6.38;;;20.40;94.30;;;;;;4958911;28;20071;-74
2021/06/10 04:53:14;;;;;;;7.90;6.32;;;20.50;94.30;;;;;;4968537;28;20036;-74
2021/06/10 04:55:40;;;;;;;8.55;6.35;;;20.50;93.90;;;;;;4972916;28;20762;-74
2021/06/10 04:58:09;;;;;;;7.03;5.80;;;20.60;93.90;;;;;;4973657;28;20034;-74
2021/06/10 05:00:38;;;;;;;9.70;6.95;;;20.60;93.50;;;;;;4966703;28;20062;-74
2021/06/10 05:03:04;;;;;;;7.80;5.68;;;20.70;93.30;;;;;;4964567;28;20042;-75
2021/06/10 05:05:30;;;;;;;11.15;5.95;;;20.40;93.00;;;;;;4967689;28;20452;-73
2021/06/10 05:07:55;;;;;;;6.60;5.90;;;20.50;93.30;;;;;;4943809;28;20027;-73
2021/06/10 05:10:21;;;;;;;6.57;5.88;;;20.60;93.10;;;;;;4959865;28;20393;-74
2021/06/10 05:12:46;;;;;;;12.70;7.13;;;20.70;92.70;;;;;;4959413;28;20026;-74
2021/06/10 05:15:12;;;;;;;7.40;6.70;;;20.90;92.60;;;;;;4958334;28;20052;-75
2021/06/10 05:17:38;;;;;;;9.50;5.88;;;20.90;92.30;;;;;;4980263;28;20467;-74
2021/06/10 05:20:04;;;;;;;9.82;5.93;;;20.90;92.50;;;;;;4973840;28;20035;-74
2021/06/10 05:22:30;;;;;;;12.27;7.20;;;21.00;92.30;;;;;;4962885;28;20035;-73
2021/06/10 05:24:56;;;;;;;11.55;6.60;;;21.10;92.50;;;;;;4962269;28;20023;-74
2021/06/10 05:27:22;;;;;;;9.63;6.40;;;21.10;92.50;;;;;;4965074;28;20033;-74
2021/06/10 05:29:47;;;;;;;10.00;6.05;;;21.20;92.70;;;;;;4963078;28;20019;-74
2021/06/10 05:32:13;;;;;;;10.90;6.00;;;21.30;92.60;;;;;;4961623;28;20126;-73
2021/06/10 05:34:39;;;;;;;11.55;6.32;;;21.20;92.60;;;;;;4956942;28;20552;-75
2021/06/10 05:37:05;;;;;;;7.82;6.00;;;21.40;92.10;;;;;;4959681;28;20035;-73
2021/06/10 05:39:30;;;;;;;9.63;6.25;;;21.40;92.40;;;;;;4967468;28;20030;-74
2021/06/10 05:41:56;;;;;;;8.88;6.25;;;21.20;92.20;;;;;;4966037;28;20065;-73
2021/06/10 05:44:25;;;;;;;10.65;5.97;;;21.30;91.60;;;;;;4972820;28;20037;-73
2021/06/10 05:46:50;;;;;;;7.15;6.00;;;21.30;91.70;;;;;;4958481;28;20027;-73
2021/06/10 05:49:17;;;;;;;7.70;5.90;;;21.50;91.50;;;;;;4966121;28;20078;-72
2021/06/10 05:51:43;;;;;;;10.65;5.43;;;21.50;91.20;;;;;;4968177;28;20034;-74
2021/06/10 05:54:09;;;;;;;10.70;5.50;;;21.40;90.70;;;;;;4963682;28;20031;-73
2021/06/10 05:56:35;;;;;;;9.40;5.93;;;21.60;90.30;;;;;;4970192;28;20530;-74
2021/06/10 05:59:01;;;;;;;10.75;5.38;;;21.50;90.00;;;;;;4967941;28;20661;-82
2021/06/10 06:01:26;;;;;;;14.75;6.03;;;21.60;90.10;;;;;;4967537;28;20160;-77
2021/06/10 06:03:52;;;;;;;8.32;5.38;;;21.60;89.90;;;;;;4962675;28;20030;-75
2021/06/10 06:06:19;;;;;;;8.07;5.15;;;21.90;89.10;;;;;;4968285;28;20041;-74
2021/06/10 06:08:45;;;;;;;6.82;5.45;;;21.70;89.20;;;;;;4973449;28;20023;-74
2021/06/10 06:11:11;;;;;;;12.55;5.90;;;21.90;89.70;;;;;;4966606;28;20236;-75
2021/06/10 06:16:21;;;;;;;11.73;5.18;;;22.00;88.90;;;;;;4962244;28;20037;-76
2021/06/10 06:18:50;;;;;;;8.82;5.57;;;22.20;88.50;;;;;;4975122;28;20030;-75
2021/06/10 06:21:16;;;;;;;7.80;5.55;;;22.30;87.80;;;;;;4983038;28;20042;-75
2021/06/10 06:23:42;;;;;;;9.15;5.18;;;22.30;86.90;;;;;;4966345;28;20574;-75
2021/06/10 06:26:09;;;;;;;7.20;5.00;;;22.40;85.90;;;;;;4965719;28;20084;-74
2021/06/10 06:28:36;;;;;;;8.00;6.10;;;22.20;85.80;;;;;;4981509;28;20027;-74
2021/06/10 06:31:01;;;;;;;7.32;5.22;;;22.50;85.60;;;;;;4961305;28;20039;-75
2021/06/10 06:33:27;;;;;;;7.95;5.28;;;22.40;85.30;;;;;;4975641;28;20073;-74
2021/06/10 06:35:55;;;;;;;7.40;5.40;;;22.60;84.90;;;;;;4975177;28;20335;-75
2021/06/10 06:38:21;;;;;;;7.50;5.20;;;23.00;84.40;;;;;;4985998;28;20027;-75
2021/06/10 06:40:48;;;;;;;15.43;6.15;;;23.30;82.50;;;;;;4983773;28;20375;-74
2021/06/10 06:43:15;;;;;;;11.10;5.60;;;23.50;81.40;;;;;;4980274;28;20034;-75
2021/06/10 06:45:40;;;;;;;9.88;6.25;;;23.80;80.40;;;;;;4974377;28;20487;-77
2021/06/10 06:48:06;;;;;;;5.95;5.32;;;24.50;78.90;;;;;;4961408;28;20078;-78
2021/06/10 06:50:32;;;;;;;6.25;4.90;;;26.00;75.20;;;;;;4980861;28;20058;-75
2021/06/10 06:53:03;;;;;;;9.40;6.00;;;27.30;70.60;;;;;;4980911;28;20594;-75
2021/06/10 06:55:29;;;;;;;7.55;5.00;;;27.00;68.90;;;;;;4978619;28;20027;-77
2021/06/10 06:57:55;;;;;;;8.98;5.43;;;26.70;69.10;;;;;;4968147;28;20080;-77
2021/06/10 07:00:21;;;;;;;12.05;5.97;;;26.90;67.50;;;;;;4982480;28;20034;-76
2021/06/10 07:02:47;;;;;;;12.18;6.53;;;26.90;67.90;;;;;;4981531;28;20026;-76
2021/06/10 07:05:12;;;;;;;9.02;5.53;;;26.90;67.00;;;;;;4971720;28;20054;-75
2021/06/10 07:07:38;;;;;;;9.93;5.30;;;26.90;66.80;;;;;;4960497;28;20033;-77
2021/06/10 07:10:07;;;;;;;11.60;6.00;;;28.00;65.30;;;;;;4969579;28;20023;-75
2021/06/10 07:12:32;;;;;;;8.15;4.63;;;28.50;63.80;;;;;;4973971;28;20602;-75
2021/06/10 07:14:59;;;;;;;10.95;5.63;;;28.20;62.50;;;;;;4970092;28;20161;-76
2021/06/10 07:17:25;;;;;;;8.05;4.88;;;28.50;62.00;;;;;;4967733;28;20492;-76
2021/06/10 07:19:52;;;;;;;4.72;4.22;;;28.60;61.20;;;;;;4982761;28;20387;-75
2021/06/10 07:22:18;;;;;;;8.55;4.40;;;29.00;60.40;;;;;;4947899;28;20483;-75
2021/06/10 07:24:46;;;;;;;7.07;4.53;;;29.30;59.40;;;;;;4967567;28;20114;-76
2021/06/10 07:27:16;;;;;;;5.70;4.40;;;29.30;58.60;;;;;;4967032;28;20723;-75
2021/06/10 07:29:41;;;;;;;9.55;4.50;;;30.10;56.60;;;;;;4985481;28;20085;-74
2021/06/10 07:32:07;;;;;;;5.97;4.30;;;31.00;54.90;;;;;;4996311;28;20034;-76
2021/06/10 07:34:34;;;;;;;4.53;3.80;;;30.90;54.80;;;;;;4977173;28;20059;-75
2021/06/10 07:36:59;;;;;;;8.35;4.10;;;30.90;54.10;;;;;;4965032;28;20027;-72
2021/06/10 07:39:25;;;;;;;9.35;6.57;;;31.40;53.40;;;;;;4974284;28;20041;-74
2021/06/10 07:41:50;;;;;;;6.30;4.18;;;31.10;52.80;;;;;;4969297;28;20063;-76
2021/06/10 07:44:16;;;;;;;7.90;5.20;;;30.90;52.40;;;;;;4973809;28;20027;-77
2021/06/10 07:46:41;;;;;;;9.57;4.47;;;31.30;51.50;;;;;;4980118;28;20018;-78
2021/06/10 07:49:07;;;;;;;7.38;4.15;;;31.60;51.10;;;;;;4971443;28;20537;-77
2021/06/10 07:51:32;;;;;;;4.85;4.25;;;31.00;51.70;;;;;;4979027;28;20018;-76
2021/06/10 07:53:58;;;;;;;7.47;4.88;;;31.20;51.20;;;;;;4986748;28;20030;-76
2021/06/10 07:56:23;;;;;;;7.63;4.50;;;31.30;51.50;;;;;;4985343;28;20180;-76
2021/06/10 07:58:49;;;;;;;5.38;4.35;;;31.50;51.60;;;;;;4983646;28;20089;-77
2021/06/10 08:01:15;;;;;;;6.22;5.35;;;31.50;51.50;;;;;;4973227;28;20503;-77
2021/06/10 08:03:41;;;;;;;7.90;5.10;;;31.00;52.00;;;;;;4966870;28;20046;-76
2021/06/10 08:06:06;;;;;;;8.35;5.82;;;30.60;52.80;;;;;;4984793;28;20109;-76
2021/06/10 08:08:32;;;;;;;6.55;5.63;;;31.00;52.70;;;;;;4989929;28;20026;-76
2021/06/10 08:11:03;;;;;;;7.80;6.25;;;30.30;53.20;;;;;;4981683;28;20074;-76
2021/06/10 08:13:29;;;;;;;7.43;6.40;;;31.10;52.80;;;;;;4967488;28;20121;-76
2021/06/10 08:15:54;;;;;;;6.13;5.32;;;31.00;52.50;;;;;;4981694;28;20054;-76
2021/06/10 08:18:20;;;;;;;6.25;5.60;;;31.00;52.80;;;;;;4977517;28;20035;-77
2021/06/10 08:20:46;;;;;;;5.38;4.82;;;30.80;52.60;;;;;;4982096;28;20034;-77
2021/06/10 08:23:12;;;;;;;6.60;5.20;;;30.40;53.20;;;;;;4963739;28;20020;-77
2021/06/10 08:25:43;;;;;;;6.50;5.90;;;31.60;52.30;;;;;;4981404;28;20085;-73
2021/06/10 08:28:09;;;;;;;6.78;5.65;;;31.70;51.40;;;;;;4967048;28;20552;-72
2021/06/10 08:30:34;;;;;;;6.82;6.18;;;31.30;52.30;;;;;;4965947;28;20114;-73
2021/06/10 08:33:00;;;;;;;8.05;5.43;;;31.20;52.10;;;;;;4959193;28;20042;-72
2021/06/10 08:35:25;;;;;;;7.13;6.47;;;31.20;52.30;;;;;;4969957;28;20387;-73
2021/06/10 08:37:51;;;;;;;8.05;6.47;;;31.20;52.30;;;;;;4978990;28;20030;-72
2021/06/10 08:40:17;;;;;;;6.47;5.88;;;30.90;52.30;;;;;;4978946;28;20077;-73
2021/06/10 08:42:44;;;;;;;7.63;6.80;;;31.20;52.00;;;;;;4971421;28;20440;-72
2021/06/10 08:45:11;;;;;;;7.00;6.40;;;30.50;52.50;;;;;;4961002;28;20034;-72
2021/06/10 08:47:42;;;;;;;7.88;6.43;;;30.20;52.90;;;;;;4973567;28;20027;-71
2021/06/10 08:50:11;;;;;;;7.40;5.97;;;30.00;53.20;;;;;;4965647;28;20031;-72
2021/06/10 08:52:38;;;;;;;9.45;6.03;;;30.40;52.70;;;;;;4957519;28;20020;-72
2021/06/10 08:55:04;;;;;;;7.00;6.30;;;32.50;51.00;;;;;;4976258;28;20041;-72
2021/06/10 08:57:30;;;;;;;6.63;6.00;;;33.50;48.80;;;;;;4978101;28;20034;-72
2021/06/10 08:59:56;;;;;;;8.88;5.93;;;31.90;49.70;;;;;;4979124;28;20423;-72
2021/06/10 09:02:21;;;;;;;8.60;6.03;;;31.30;50.90;;;;;;4985324;28;20035;-72
2021/06/10 09:04:47;;;;;;;7.07;6.38;;;32.20;50.10;;;;;;4976076;28;20042;-71
2021/06/10 09:07:13;;;;;;;6.25;5.65;;;32.20;50.60;;;;;;4980372;28;20038;-71
2021/06/10 09:09:41;;;;;;;8.68;5.97;;;33.00;49.20;;;;;;4983566;28;20030;-72
2021/06/10 09:12:09;;;;;;;12.80;5.82;;;33.00;48.40;;;;;;4960257;28;20108;-72
2021/06/10 09:15:09;;;;;;;6.63;5.15;;;32.60;48.90;;;;;;4957641;28;20102;-72
2021/06/10 09:17:41;;;;;;;5.65;5.13;;;32.20;49.70;;;;;;4946302;28;20086;-72
2021/06/10 09:20:19;;;;;;;7.40;5.50;;;32.40;49.40;;;;;;4963717;28;20145;-72
2021/06/10 09:22:46;;;;;;;9.98;5.65;;;32.00;49.90;;;;;;4961236;28;20030;-72
2021/06/10 09:25:17;;;;;;;7.10;5.35;;;31.40;51.00;;;;;;4967079;28;20076;-73
2021/06/10 09:27:57;;;;;;;6.32;5.72;;;32.50;49.70;;;;;;4979178;28;20220;-73
2021/06/10 09:30:35;;;;;;;5.65;5.10;;;32.10;49.80;;;;;;4980306;28;20096;-74
2021/06/10 09:33:04;;;;;;;9.18;4.97;;;32.10;49.90;;;;;;4982157;28;20050;-73
2021/06/10 09:35:33;;;;;;;7.55;6.88;;;31.80;50.00;;;;;;4959985;28;20042;-73
2021/06/10 09:38:01;;;;;;;9.85;6.05;;;33.20;48.30;;;;;;4974563;28;20502;-73
2021/06/10 09:40:28;;;;;;;6.53;5.57;;;33.30;48.60;;;;;;4980560;28;20028;-73
2021/06/10 09:42:55;;;;;;;7.57;5.55;;;34.70;46.30;;;;;;4976862;28;20054;-74
2021/06/10 09:45:24;;;;;;;10.10;6.50;;;34.90;46.30;;;;;;4970562;28;20345;-73
2021/06/10 09:47:53;;;;;;;9.50;5.85;;;35.40;46.10;;;;;;4980165;28;20138;-74
2021/06/10 09:50:21;;;;;;;7.30;5.20;;;36.70;44.60;;;;;;4983007;28;20456;-73
2021/06/10 09:52:50;;;;;;;6.87;6.17;;;36.80;43.80;;;;;;4972314;28;20382;-73
2021/06/10 09:55:24;;;;;;;6.35;5.78;;;35.60;44.60;;;;;;4955552;28;20114;-73
2021/06/10 09:57:51;;;;;;;7.80;5.35;;;34.70;44.60;;;;;;4973301;28;20071;-72
2021/06/10 10:00:24;;;;;;;5.30;4.80;;;34.60;45.30;;;;;;4980198;28;20053;-72
2021/06/10 10:02:50;;;;;;;5.65;5.00;;;33.60;45.30;;;;;;4978796;28;20019;-73
2021/06/10 10:05:15;;;;;;;8.32;4.95;;;33.30;46.00;;;;;;4964814;28;20043;-73
2021/06/10 10:07:41;;;;;;;5.63;4.47;;;34.20;45.50;;;;;;4980907;28;20088;-72
2021/06/10 10:10:09;;;;;;;8.02;4.97;;;34.20;45.40;;;;;;4977501;28;20031;-73
2021/06/10 10:12:40;;;;;;;8.90;6.53;;;34.80;45.10;;;;;;4980826;28;20475;-73
2021/06/10 10:15:06;;;;;;;5.55;5.00;;;36.50;43.70;;;;;;4966601;28;20022;-72
2021/06/10 10:17:32;;;;;;;7.45;5.90;;;37.10;42.30;;;;;;4963859;28;20098;-72
2021/06/10 10:19:57;;;;;;;8.70;7.25;;;37.30;42.10;;;;;;4972768;28;20507;-73
2021/06/10 10:22:26;;;;;;;7.05;4.82;;;37.70;41.90;;;;;;4980373;28;20521;-73
2021/06/10 10:24:53;;;;;;;5.93;4.15;;;37.40;41.40;;;;;;4967296;28;20022;-72
2021/06/10 10:27:19;;;;;;;11.40;9.73;;;37.00;42.00;;;;;;4962645;28;20087;-72
2021/06/10 10:29:47;;;;;;;6.28;4.30;;;36.60;42.50;;;;;;4983040;28;20538;-72
2021/06/10 10:32:24;;;;;;;5.97;5.38;;;35.50;43.00;;;;;;4979479;28;20039;-72
2021/06/10 10:34:49;;;;;;;7.35;4.70;;;34.00;44.40;;;;;;4961629;28;20355;-73
2021/06/10 10:37:24;;;;;;;4.25;3.83;;;32.10;45.90;;;;;;4960784;28;20039;-73
2021/06/10 10:39:55;;;;;;;5.25;4.20;;;30.40;47.80;;;;;;4962817;28;20026;-73
2021/06/10 10:42:33;;;;;;;6.65;4.15;;;29.90;48.80;;;;;;4980072;28;20049;-72
2021/06/10 10:45:17;;;;;;;5.00;4.50;;;30.90;48.10;;;;;;4964698;28;20480;-74
2021/06/10 10:47:47;;;;;;;7.03;4.80;;;31.30;47.30;;;;;;4967928;28;20058;-73
2021/06/10 10:50:17;;;;;;;4.63;4.10;;;31.40;47.40;;;;;;4981650;28;20037;-73
2021/06/10 10:52:57;;;;;;;5.70;4.28;;;31.50;47.10;;;;;;4978949;28;20146;-74
2021/06/10 10:55:31;;;;;;;11.15;6.22;;;30.80;47.70;;;;;;4966394;28;20028;-73
2021/06/10 10:58:05;;;;;;;4.72;4.32;;;30.40;48.20;;;;;;4980318;28;20058;-73
2021/06/10 11:00:48;;;;;;;8.45;4.72;;;29.80;48.80;;;;;;4981450;28;20034;-73
2021/06/10 11:03:19;;;;;;;6.13;5.53;;;30.20;48.50;;;;;;4959880;28;20038;-73
2021/06/10 11:05:46;;;;;;;5.22;3.90;;;30.90;48.20;;;;;;4965384;28;20043;-72
2021/06/10 11:08:12;;;;;;;5.53;4.22;;;31.50;47.60;;;;;;4964251;28;20073;-73
2021/06/10 11:10:49;;;;;;;6.15;4.53;;;31.10;47.40;;;;;;4966925;28;20110;-74
2021/06/10 11:13:26;;;;;;;4.93;4.03;;;30.40;47.80;;;;;;4967051;28;20072;-75
2021/06/10 11:15:55;;;;;;;4.78;4.25;;;31.10;47.70;;;;;;4970018;28;20052;-72
2021/06/10 11:18:40;;;;;;;5.05;4.10;;;31.40;46.50;;;;;;4980848;28;20027;-73
2021/06/10 11:21:26;;;;;;;4.60;4.20;;;31.00;46.90;;;;;;4977913;28;20039;-73
2021/06/10 11:24:11;;;;;;;6.45;4.32;;;29.70;48.70;;;;;;4959936;28;20027;-72
2021/06/10 11:27:01;;;;;;;6.68;4.28;;;29.30;49.30;;;;;;4958391;28;20109;-72
2021/06/10 11:29:27;;;;;;;5.83;4.37;;;29.90;48.60;;;;;;4956689;28;20031;-73
2021/06/10 11:32:18;;;;;;;5.22;4.03;;;29.60;48.90;;;;;;4960939;28;20049;-72
2021/06/10 11:34:52;;;;;;;5.88;4.15;;;30.10;48.90;;;;;;4965110;28;20059;-74
2021/06/10 11:37:23;;;;;;;4.53;4.13;;;30.40;48.70;;;;;;4973885;28;20026;-73
2021/06/10 11:39:50;;;;;;;8.88;4.55;;;29.70;49.20;;;;;;4978436;28;20030;-74
2021/06/10 11:42:15;;;;;;;7.75;4.22;;;30.60;48.60;;;;;;4980646;28;20026;-73
2021/06/10 11:44:46;;;;;;;6.20;3.90;;;31.90;47.10;;;;;;4975601;28;20046;-72
2021/06/10 11:47:27;;;;;;;5.25;4.05;;;33.80;45.80;;;;;;4958736;28;20087;-73
2021/06/10 11:49:53;;;;;;;5.60;4.88;;;35.00;43.60;;;;;;4979416;28;20398;-71
2021/06/10 11:52:19;;;;;;;4.28;3.88;;;33.90;44.60;;;;;;4978892;28;20035;-70
2021/06/10 11:55:20;;;;;;;5.95;4.47;;;33.00;45.20;;;;;;4980280;28;20211;-71
2021/06/10 11:57:53;;;;;;;5.65;3.33;;;31.90;45.80;;;;;;4914709;29;20084;-71
2021/06/10 12:00:25;;;;;;;4.90;3.90;;;32.20;45.80;;;;;;4968523;28;20035;-71
2021/06/10 12:02:56;;;;;;;3.92;3.58;;;32.50;45.00;;;;;;4970383;28;20030;-71
2021/06/10 12:05:22;;;;;;;3.80;3.50;;;32.10;46.30;;;;;;4959484;28;20533;-71
2021/06/10 12:07:50;;;;;;;3.40;3.10;;;33.60;44.70;;;;;;4959203;28;20106;-71
2021/06/10 12:10:19;;;;;;;3.95;3.50;;;34.90;43.90;;;;;;4958839;28;20101;-71
2021/06/10 12:12:47;;;;;;;4.55;3.80;;;35.20;42.80;;;;;;4958561;28;20062;-72
2021/06/10 12:15:27;;;;;;;8.68;4.07;;;35.40;43.70;;;;;;4961988;28;20038;-70
2021/06/10 12:18:09;;;;;;;5.50;3.92;;;32.70;45.10;;;;;;4961192;28;20099;-72
2021/06/10 12:20:39;;;;;;;4.25;3.80;;;32.80;45.50;;;;;;4959162;28;20081;-72
2021/06/10 12:23:15;;;;;;;4.80;3.88;;;32.80;45.20;;;;;;4964009;28;20031;-70
2021/06/10 12:25:41;;;;;;;4.97;3.47;;;32.10;46.00;;;;;;4958369;28;20027;-71
2021/06/10 12:28:07;;;;;;;7.60;3.70;;;31.90;46.20;;;;;;4959325;28;20388;-73
2021/06/10 12:30:37;;;;;;;5.63;3.92;;;30.90;46.40;;;;;;4963125;28;20436;-71
2021/06/10 12:33:22;;;;;;;4.15;3.80;;;30.30;47.30;;;;;;4961837;28;20406;-71
2021/06/10 12:35:50;;;;;;;3.80;3.50;;;30.50;46.70;;;;;;4962420;28;20026;-71
2021/06/10 12:38:17;;;;;;;4.22;3.60;;;31.30;46.60;;;;;;4977733;28;20035;-71
2021/06/10 12:40:46;;;;;;;4.28;3.72;;;31.80;45.80;;;;;;4980046;28;20038;-70
2021/06/10 12:43:20;;;;;;;4.68;3.85;;;32.40;45.50;;;;;;4969088;28;20048;-72
2021/06/10 12:45:46;;;;;;;3.38;3.08;;;32.10;45.00;;;;;;4958340;28;20114;-71
2021/06/10 12:48:23;;;;;;;3.28;2.97;;;33.70;42.10;;;;;;4960308;28;20030;-71
2021/06/10 12:50:49;;;;;;;4.85;3.47;;;34.20;40.00;;;;;;4959757;28;20027;-71
2021/06/10 12:53:18;;;;;;;3.60;2.80;;;34.40;40.80;;;;;;4958307;28;20134;-71